createdAt,value
2019-04-26T00:00:00.359Z,13.03
2019-04-26T00:02:41.419Z,13.01
2019-04-26T00:05:12.907Z,12.99
2019-04-26T00:07:44.519Z,13.05
2019-04-26T00:10:32.931Z,13.00
2019-04-26T00:13:22.500Z,12.96
2019-04-26T00:16:16.763Z,12.99
2019-04-26T00:18:48.201Z,13.01
2019-04-26T00:21:19.469Z,12.99
2019-04-26T00:23:51.043Z,13.04
2019-04-26T00:26:22.647Z,13.05
2019-04-26T00:28:53.867Z,13.00
2019-04-26T00:31:25.126Z,12.99
2019-04-26T00:33:56.407Z,12.99
2019-04-26T00:36:27.705Z,12.99
2019-04-26T00:38:59.075Z,12.99
2019-04-26T00:41:30.791Z,13.01
2019-04-26T00:44:02.812Z,13.00
2019-04-26T00:46:36.585Z,12.96
2019-04-26T00:49:10.693Z,12.99
2019-04-26T00:51:42.843Z,12.98
2019-04-26T00:54:15.431Z,12.95
2019-04-26T00:56:47.273Z,12.97
2019-04-26T00:59:20.441Z,12.99
2019-04-26T01:01:56.519Z,13.00
2019-04-26T01:04:27.789Z,12.93
2019-04-26T01:06:59.948Z,12.92
2019-04-26T01:09:31.193Z,12.92
2019-04-26T01:12:02.475Z,12.91
2019-04-26T01:14:33.725Z,12.90
2019-04-26T01:17:05.382Z,12.92
2019-04-26T01:19:39.661Z,12.89
2019-04-26T01:22:18.284Z,12.87
2019-04-26T01:24:54.346Z,12.85
2019-04-26T01:27:29.560Z,12.97
2019-04-26T01:30:05.948Z,12.83
2019-04-26T01:32:42.226Z,12.73
2019-04-26T01:35:13.712Z,12.72
2019-04-26T01:37:47.881Z,12.72
2019-04-26T01:40:22.022Z,12.72
2019-04-26T01:43:08.352Z,12.72
2019-04-26T01:45:48.548Z,12.69
2019-04-26T01:48:47.070Z,12.71
2019-04-26T01:51:28.756Z,12.71
2019-04-26T01:54:00.153Z,12.72
2019-04-26T01:56:36.477Z,12.69
2019-04-26T01:59:12.366Z,12.71
2019-04-26T02:02:01.920Z,12.76
2019-04-26T02:04:36.040Z,12.74
2019-04-26T02:07:07.731Z,12.69
2019-04-26T02:09:39.051Z,12.73
2019-04-26T02:12:10.465Z,12.69
2019-04-26T02:14:42.355Z,12.70
2019-04-26T02:17:13.618Z,12.68
2019-04-26T02:19:44.906Z,12.68
2019-04-26T02:22:32.052Z,12.67
2019-04-26T02:25:03.549Z,12.63
2019-04-26T02:27:35.121Z,12.65
2019-04-26T02:30:08.388Z,12.63
2019-04-26T02:32:40.417Z,12.64
2019-04-26T02:35:12.468Z,12.61
2019-04-26T02:37:43.953Z,12.65
2019-04-26T02:40:18.881Z,12.66
2019-04-26T02:42:50.980Z,12.63
2019-04-26T02:46:17.986Z,12.62
2019-04-26T02:49:33.037Z,12.69
2019-04-26T02:52:31.264Z,12.67
2019-04-26T02:55:16.425Z,12.69
2019-04-26T02:57:54.940Z,12.53
2019-04-26T03:00:26.208Z,12.47
2019-04-26T03:03:08.330Z,12.52
2019-04-26T03:05:43.395Z,12.49
2019-04-26T03:08:20.274Z,12.45
2019-04-26T03:11:22.181Z,12.41
2019-04-26T03:14:16.102Z,12.47
2019-04-26T03:17:08.744Z,12.35
2019-04-26T03:19:56.968Z,12.39
2019-04-26T03:23:03.476Z,12.38
2019-04-26T03:25:59.122Z,12.36
2019-04-26T03:29:11.536Z,12.33
2019-04-26T03:31:55.540Z,12.26
2019-04-26T03:34:54.502Z,12.13
2019-04-26T03:38:21.059Z,12.15
2019-04-26T03:41:24.350Z,12.12
2019-04-26T03:44:20.873Z,12.12
2019-04-26T03:47:06.624Z,12.12
2019-04-26T03:50:17.426Z,12.09
2019-04-26T03:53:29.900Z,12.06
2019-04-26T03:56:51.735Z,11.97
2019-04-26T03:59:53.243Z,11.94
2019-04-26T04:02:49.246Z,11.92
2019-04-26T04:05:33.819Z,11.94
2019-04-26T04:08:09.899Z,11.84
2019-04-26T04:10:49.555Z,11.88
2019-04-26T04:13:51.159Z,11.82
2019-04-26T04:16:53.772Z,11.82
2019-04-26T04:20:22.667Z,11.75
2019-04-26T04:23:16.971Z,11.88
2019-04-26T04:25:52.498Z,11.85
2019-04-26T04:28:56.631Z,11.68
2019-04-26T04:31:36.719Z,11.64
2019-04-26T04:34:23.100Z,11.71
2019-04-26T04:36:59.047Z,11.61
2019-04-26T04:40:03.619Z,11.51
2019-04-26T04:43:08.023Z,11.58
2019-04-26T04:46:32.758Z,11.55
2019-04-26T04:49:46.540Z,11.40
2019-04-26T04:52:50.076Z,11.42
2019-04-26T04:55:55.393Z,11.35
2019-04-26T04:58:38.521Z,11.39
2019-04-26T05:02:01.962Z,11.38
2019-04-26T05:05:17.896Z,11.31
2019-04-26T05:08:27.412Z,11.20
2019-04-26T05:11:19.652Z,11.09
2019-04-26T05:14:13.574Z,11.07
2019-04-26T05:17:16.643Z,11.00
2019-04-26T05:20:28.447Z,11.08
2019-04-26T05:23:48.926Z,11.15
2019-04-26T05:27:08.209Z,11.06
2019-04-26T05:30:35.986Z,11.13
2019-04-26T05:33:31.948Z,11.22
2019-04-26T05:37:37.266Z,11.15
2019-04-26T05:40:53.455Z,11.03
2019-04-26T05:44:01.029Z,11.17
2019-04-26T05:47:30.054Z,11.01
2019-04-26T05:51:26.208Z,10.97
2019-04-26T05:55:18.407Z,11.03
2019-04-26T05:58:34.787Z,11.23
2019-04-26T06:02:24.518Z,11.20
2019-04-26T06:05:26.697Z,11.08
2019-04-26T06:09:11.641Z,11.01
2019-04-26T06:11:58.776Z,11.03
2019-04-26T06:15:07.517Z,11.11
2019-04-26T06:18:46.594Z,10.95
2019-04-26T06:21:36.129Z,10.99
2019-04-26T06:24:39.412Z,11.10
2019-04-26T06:28:10.527Z,11.21
2019-04-26T06:31:16.528Z,11.20
2019-04-26T06:34:15.131Z,11.30
2019-04-26T06:37:16.559Z,11.21
2019-04-26T06:40:04.449Z,11.22
2019-04-26T06:43:37.355Z,11.32
2019-04-26T06:47:06.606Z,11.32
2019-04-26T06:50:33.399Z,11.34
2019-04-26T06:53:23.027Z,11.50
2019-04-26T06:56:18.217Z,11.39
2019-04-26T06:59:36.475Z,11.54
2019-04-26T07:02:43.549Z,11.43
2019-04-26T07:05:27.013Z,11.48
2019-04-26T07:08:41.153Z,11.28
2019-04-26T07:12:33.507Z,11.37
2019-04-26T07:16:16.058Z,11.37
2019-04-26T07:19:15.265Z,11.46
2019-04-26T07:22:44.722Z,11.51
2019-04-26T07:25:56.442Z,11.58
2019-04-26T07:29:41.003Z,11.47
2019-04-26T07:32:25.130Z,11.56
2019-04-26T07:35:39.736Z,11.54
2019-04-26T07:39:19.664Z,11.61
2019-04-26T07:42:50.523Z,11.59
2019-04-26T07:45:54.096Z,11.63
2019-04-26T07:49:25.410Z,11.67
2019-04-26T07:52:46.179Z,11.65
2019-04-26T07:55:53.483Z,11.78
2019-04-26T07:59:15.111Z,11.67
2019-04-26T08:02:20.732Z,11.63
2019-04-26T08:05:09.412Z,11.65
2019-04-26T08:07:47.632Z,11.71
2019-04-26T08:10:23.372Z,11.85
2019-04-26T08:13:10.282Z,11.83
2019-04-26T08:16:12.969Z,11.82
2019-04-26T08:18:53.433Z,11.88
2019-04-26T08:21:42.497Z,11.84
2019-04-26T08:24:24.448Z,11.89
2019-04-26T08:27:22.789Z,12.03
2019-04-26T08:29:50.891Z,12.10
2019-04-26T08:32:28.146Z,12.13
2019-04-26T08:35:21.626Z,12.26
2019-04-26T08:37:56.104Z,12.18
2019-04-26T08:40:31.392Z,12.20
2019-04-26T08:43:38.693Z,12.29
2019-04-26T08:46:32.237Z,12.17
2019-04-26T08:49:23.982Z,12.11
2019-04-26T08:51:57.873Z,12.16
2019-04-26T08:54:35.136Z,12.07
2019-04-26T08:57:11.230Z,12.22
2019-04-26T08:59:48.983Z,12.40
2019-04-26T09:02:44.498Z,12.29
2019-04-26T09:05:40.540Z,12.35
2019-04-26T09:08:15.892Z,12.47
2019-04-26T09:10:51.564Z,12.63
2019-04-26T09:13:28.101Z,12.54
2019-04-26T09:16:12.476Z,12.59
2019-04-26T09:18:48.428Z,12.68
2019-04-26T09:21:19.401Z,12.64
2019-04-26T09:24:15.582Z,12.68
2019-04-26T09:27:05.777Z,12.69
2019-04-26T09:30:06.273Z,12.71
2019-04-26T09:32:42.836Z,12.39
2019-04-26T09:35:15.242Z,12.46
2019-04-26T09:37:47.548Z,12.55
2019-04-26T09:40:22.519Z,12.75
2019-04-26T09:43:18.675Z,12.89
2019-04-26T09:46:07.336Z,12.91
2019-04-26T09:48:47.412Z,13.06
2019-04-26T09:51:18.929Z,13.12
2019-04-26T09:53:50.261Z,13.37
2019-04-26T09:56:21.560Z,13.53
2019-04-26T09:58:52.872Z,13.65
2019-04-26T10:01:25.979Z,13.58
2019-04-26T10:03:57.412Z,13.45
2019-04-26T10:06:29.762Z,13.39
2019-04-26T10:09:01.769Z,13.24
2019-04-26T10:11:39.510Z,13.22
2019-04-26T10:14:14.775Z,13.30
2019-04-26T10:16:58.977Z,13.11
2019-04-26T10:20:07.381Z,13.21
2019-04-26T10:22:38.603Z,13.16
2019-04-26T10:25:16.768Z,13.11
2019-04-26T10:27:43.740Z,13.20
2019-04-26T10:30:16.952Z,13.28
2019-04-26T10:32:48.159Z,13.24
2019-04-26T10:35:21.708Z,13.29
2019-04-26T10:37:52.686Z,13.27
2019-04-26T10:40:34.984Z,13.21
2019-04-26T10:42:56.933Z,13.25
2019-04-26T10:45:29.543Z,13.10
2019-04-26T10:48:00.772Z,12.90
2019-04-26T10:50:33.102Z,12.97
2019-04-26T10:53:15.368Z,12.89
2019-04-26T10:56:03.082Z,13.01
2019-04-26T10:58:47.907Z,12.99
2019-04-26T11:01:19.684Z,13.01
2019-04-26T11:03:50.938Z,13.20
2019-04-26T11:06:24.050Z,13.39
2019-04-26T11:08:55.341Z,13.28
2019-04-26T11:11:26.617Z,13.24
2019-04-26T11:13:57.994Z,13.44
2019-04-26T11:16:29.268Z,13.59
2019-04-26T11:19:01.120Z,13.51
2019-04-26T11:21:33.483Z,13.62
2019-04-26T11:24:04.763Z,13.78
2019-04-26T11:26:36.312Z,13.92
2019-04-26T11:29:07.637Z,13.99
2019-04-26T11:31:38.917Z,14.16
2019-04-26T11:34:10.210Z,14.43
2019-04-26T11:36:42.886Z,14.72
2019-04-26T11:39:16.187Z,14.99
2019-04-26T11:41:47.544Z,15.27
2019-04-26T11:44:18.840Z,15.52
2019-04-26T11:46:50.130Z,15.61
2019-04-26T11:49:21.386Z,15.25
2019-04-26T11:51:52.692Z,15.12
2019-04-26T11:54:23.974Z,14.74
2019-04-26T11:56:55.296Z,14.72
2019-04-26T11:59:27.006Z,14.66
2019-04-26T12:01:59.624Z,14.54
2019-04-26T12:05:04.874Z,14.77
2019-04-26T12:07:40.189Z,14.84
2019-04-26T12:10:11.888Z,15.10
2019-04-26T12:12:46.487Z,14.89
2019-04-26T12:15:29.491Z,15.11
2019-04-26T12:17:58.469Z,15.18
2019-04-26T12:20:22.435Z,15.36
2019-04-26T12:22:55.242Z,15.48
2019-04-26T12:25:26.529Z,15.43
2019-04-26T12:28:01.611Z,15.22
2019-04-26T12:30:30.888Z,15.15
2019-04-26T12:33:02.253Z,15.20
2019-04-26T12:35:33.552Z,15.11
2019-04-26T12:38:05.027Z,15.16
2019-04-26T12:40:36.349Z,15.27
2019-04-26T12:43:07.691Z,15.36
2019-04-26T12:46:00.981Z,15.56
2019-04-26T12:48:32.354Z,15.69
2019-04-26T12:51:03.646Z,15.96
2019-04-26T12:53:34.958Z,15.95
2019-04-26T12:56:06.268Z,15.91
2019-04-26T12:58:37.619Z,15.98
2019-04-26T13:01:12.271Z,16.27
2019-04-26T13:03:45.718Z,16.24
2019-04-26T13:06:16.985Z,16.17
2019-04-26T13:08:51.397Z,16.26
2019-04-26T13:11:48.930Z,16.44
2019-04-26T13:14:48.540Z,16.75
2019-04-26T13:17:22.828Z,16.45
2019-04-26T13:19:55.427Z,16.04
2019-04-26T13:22:27.043Z,15.81
2019-04-26T13:24:58.358Z,15.89
2019-04-26T13:27:29.652Z,15.97
2019-04-26T13:30:02.563Z,15.87
2019-04-26T13:32:34.199Z,15.74
2019-04-26T13:35:07.288Z,15.83
2019-04-26T13:37:38.614Z,15.94
2019-04-26T13:40:09.904Z,15.96
2019-04-26T13:42:41.236Z,16.08
2019-04-26T13:45:29.168Z,16.26
2019-04-26T13:48:19.339Z,16.36
2019-04-26T13:50:57.278Z,16.45
2019-04-26T13:53:28.427Z,16.43
2019-04-26T13:56:01.946Z,15.97
2019-04-26T13:58:32.753Z,15.98
2019-04-26T14:01:05.091Z,16.03
2019-04-26T14:03:36.417Z,16.01
2019-04-26T14:06:07.738Z,16.08
2019-04-26T14:08:38.969Z,16.18
2019-04-26T14:11:10.262Z,16.31
2019-04-26T14:13:41.584Z,16.53
2019-04-26T14:16:12.859Z,16.53
2019-04-26T14:18:44.100Z,16.71
2019-04-26T14:21:15.483Z,16.93
2019-04-26T14:24:04.702Z,16.86
2019-04-26T14:26:39.957Z,16.89
2019-04-26T14:29:11.302Z,17.34
2019-04-26T14:31:42.549Z,17.51
2019-04-26T14:34:13.930Z,17.51
2019-04-26T14:36:45.233Z,17.48
2019-04-26T14:39:19.593Z,17.39
2019-04-26T14:41:52.768Z,17.39
2019-04-26T14:44:22.794Z,17.38
2019-04-26T14:46:56.759Z,17.46
2019-04-26T14:49:38.576Z,17.46
2019-04-26T14:52:00.235Z,17.69
2019-04-26T14:54:31.539Z,17.88
2019-04-26T14:57:07.764Z,17.82
2019-04-26T15:00:06.603Z,17.54
2019-04-26T15:03:08.749Z,17.59
2019-04-26T15:06:20.532Z,17.87
2019-04-26T15:08:50.298Z,17.93
2019-04-26T15:11:22.960Z,17.81
2019-04-26T15:13:54.335Z,17.95
2019-04-26T15:16:25.631Z,17.83
2019-04-26T15:18:56.924Z,17.84
2019-04-26T15:21:31.749Z,18.03
2019-04-26T15:24:02.881Z,18.22
2019-04-26T15:26:34.258Z,18.50
2019-04-26T15:29:05.649Z,18.51
2019-04-26T15:31:36.962Z,18.47
2019-04-26T15:34:08.260Z,18.47
2019-04-26T15:36:39.525Z,18.43
2019-04-26T15:39:23.078Z,18.30
2019-04-26T15:42:17.657Z,18.24
2019-04-26T15:45:03.418Z,18.08
2019-04-26T15:47:52.491Z,18.24
2019-04-26T15:50:28.679Z,18.55
2019-04-26T15:53:00.004Z,18.95
2019-04-26T15:55:33.810Z,19.11
2019-04-26T15:58:08.369Z,19.27
2019-04-26T16:00:37.578Z,19.40
2019-04-26T16:03:08.931Z,19.39
2019-04-26T16:05:40.319Z,19.21
2019-04-26T16:08:13.077Z,19.04
2019-04-26T16:10:44.525Z,18.91
2019-04-26T16:13:20.708Z,18.79
2019-04-26T16:15:49.730Z,18.72
2019-04-26T16:18:22.406Z,18.64
2019-04-26T16:20:53.786Z,18.70
2019-04-26T16:23:38.140Z,18.65
2019-04-26T16:25:58.169Z,18.61
2019-04-26T16:28:42.363Z,18.57
2019-04-26T16:31:19.559Z,18.46
2019-04-26T16:33:52.975Z,18.38
2019-04-26T16:36:24.436Z,18.34
2019-04-26T16:38:57.899Z,18.23
2019-04-26T16:41:33.885Z,18.16
2019-04-26T16:44:02.794Z,17.87
2019-04-26T16:46:34.396Z,17.66
2019-04-26T16:49:09.225Z,17.61
2019-04-26T16:51:38.953Z,17.60
2019-04-26T16:54:16.319Z,17.59
2019-04-26T16:56:43.937Z,17.58
2019-04-26T17:00:35.776Z,17.55
2019-04-26T17:01:48.556Z,17.41
2019-04-26T17:04:24.822Z,17.21
2019-04-26T17:06:53.207Z,17.08
2019-04-26T17:09:29.754Z,16.89
2019-04-26T17:11:57.801Z,16.83
2019-04-26T17:14:33.943Z,16.68
2019-04-26T17:17:07.476Z,16.59
2019-04-26T17:19:37.606Z,16.55
2019-04-26T17:22:42.559Z,16.56
2019-04-26T17:25:24.238Z,16.52
2019-04-26T17:27:52.894Z,16.41
2019-04-26T17:30:26.339Z,16.36
2019-04-26T17:32:57.839Z,16.32
2019-04-26T17:35:32.811Z,16.32
2019-04-26T17:38:05.194Z,16.36
2019-04-26T17:40:38.031Z,16.23
2019-04-26T17:43:10.787Z,16.09
2019-04-26T17:45:44.226Z,16.04
2019-04-26T17:48:15.783Z,15.80
2019-04-26T17:50:47.502Z,15.59
2019-04-26T17:53:28.523Z,15.11
2019-04-26T17:55:54.743Z,14.80
2019-04-26T17:58:31.035Z,14.47
2019-04-26T18:01:01.097Z,14.31
2019-04-26T18:03:32.641Z,14.29
2019-04-26T18:06:04.505Z,14.24
2019-04-26T18:08:45.254Z,14.27
2019-04-26T18:11:18.463Z,14.34
2019-04-26T18:13:42.752Z,14.28
2019-04-26T18:16:17.791Z,14.27
2019-04-26T18:19:26.320Z,14.27
2019-04-26T18:22:19.231Z,14.15
2019-04-26T18:24:50.884Z,14.07
2019-04-26T18:27:23.971Z,13.99
2019-04-26T18:29:59.869Z,13.95
2019-04-26T18:32:28.906Z,13.91
2019-04-26T18:35:00.546Z,13.86
2019-04-26T18:37:36.483Z,13.80
2019-04-26T18:40:05.768Z,13.74
2019-04-26T18:42:41.472Z,13.66
2019-04-26T18:45:10.870Z,13.60
2019-04-26T18:47:43.703Z,13.55
2019-04-26T18:50:18.639Z,13.53
2019-04-26T18:52:59.837Z,13.30
2019-04-26T18:55:34.329Z,13.17
2019-04-26T18:58:05.569Z,13.07
2019-04-26T19:00:39.472Z,13.00
2019-04-26T19:03:13.551Z,12.95
2019-04-26T19:05:44.418Z,12.97
2019-04-26T19:08:16.127Z,13.05
2019-04-26T19:10:58.306Z,12.84
2019-04-26T19:13:36.532Z,12.70
2019-04-26T19:16:18.195Z,12.54
2019-04-26T19:18:54.806Z,12.43
2019-04-26T19:22:01.500Z,12.36
2019-04-26T19:24:33.652Z,12.37
2019-04-26T19:27:05.782Z,12.30
2019-04-26T19:29:37.446Z,12.26
2019-04-26T19:32:09.153Z,12.21
2019-04-26T19:34:42.090Z,12.19
2019-04-26T19:37:13.849Z,12.15
2019-04-26T19:39:45.515Z,12.13
2019-04-26T19:42:17.123Z,12.11
2019-04-26T19:44:49.392Z,12.06
2019-04-26T19:47:47.041Z,12.02
2019-04-26T19:50:32.174Z,12.03
2019-04-26T19:53:28.520Z,11.96
2019-04-26T19:56:09.819Z,11.90
2019-04-26T19:58:42.160Z,11.81
2019-04-26T20:01:16.620Z,11.77
2019-04-26T20:03:51.472Z,11.72
2019-04-26T20:06:20.610Z,11.69
2019-04-26T20:08:52.239Z,11.59
2019-04-26T20:11:23.939Z,11.59
2019-04-26T20:13:55.622Z,11.55
2019-04-26T20:16:27.350Z,11.46
2019-04-26T20:18:59.081Z,11.44
2019-04-26T20:21:32.638Z,11.46
2019-04-26T20:24:04.083Z,11.42
2019-04-26T20:26:37.418Z,11.39
2019-04-26T20:29:10.168Z,11.46
2019-04-26T20:31:51.956Z,11.43
2019-04-26T20:34:23.457Z,11.29
2019-04-26T20:36:55.071Z,11.26
2019-04-26T20:39:26.711Z,11.18
2019-04-26T20:42:01.882Z,11.13
2019-04-26T20:44:47.576Z,11.14
2019-04-26T20:47:07.683Z,11.09
2019-04-26T20:49:47.485Z,11.09
2019-04-26T20:52:11.326Z,11.26
2019-04-26T20:54:46.598Z,11.34
2019-04-26T20:57:19.638Z,11.37
2019-04-26T20:59:52.678Z,11.44
2019-04-26T21:02:24.869Z,11.43
2019-04-26T21:04:56.608Z,11.37
2019-04-26T21:07:28.183Z,11.33
2019-04-26T21:09:59.712Z,11.25
2019-04-26T21:12:31.448Z,11.13
2019-04-26T21:15:02.922Z,11.08
2019-04-26T21:17:34.418Z,11.06
2019-04-26T21:20:06.014Z,11.03
2019-04-26T21:22:37.335Z,10.99
2019-04-26T21:25:14.822Z,11.03
2019-04-26T21:27:55.615Z,10.99
2019-04-26T21:30:41.793Z,10.92
2019-04-26T21:33:38.767Z,10.83
2019-04-26T21:36:24.350Z,10.75
2019-04-26T21:39:20.379Z,10.69
2019-04-26T21:41:53.204Z,10.71
2019-04-26T21:44:24.767Z,10.77
2019-04-26T21:46:58.860Z,10.82
2019-04-26T21:49:29.229Z,10.81
2019-04-26T21:52:00.599Z,10.83
2019-04-26T21:54:33.014Z,10.77
2019-04-26T21:57:04.404Z,10.86
2019-04-26T21:59:40.844Z,10.84
2019-04-26T22:02:09.202Z,10.82
2019-04-26T22:04:40.574Z,10.77
2019-04-26T22:07:11.888Z,10.72
2019-04-26T22:10:05.306Z,10.74
2019-04-26T22:12:35.121Z,10.70
2019-04-26T22:15:37.310Z,10.65
2019-04-26T22:18:16.471Z,10.66
2019-04-26T22:21:00.520Z,10.73
2019-04-26T22:23:51.734Z,10.59
2019-04-26T22:26:23.886Z,10.57
2019-04-26T22:28:55.164Z,10.44
2019-04-26T22:31:26.582Z,10.44
2019-04-26T22:34:01.374Z,10.56
2019-04-26T22:36:31.846Z,10.52
2019-04-26T22:39:04.918Z,10.60
2019-04-26T22:41:36.214Z,10.72
2019-04-26T22:44:13.879Z,10.99
2019-04-26T22:46:58.809Z,11.07
2019-04-26T22:49:27.967Z,11.03
2019-04-26T22:51:59.260Z,11.02
2019-04-26T22:54:30.547Z,11.13
2019-04-26T22:57:03.803Z,11.17
2019-04-26T22:59:38.098Z,11.12
2019-04-26T23:02:10.327Z,11.00
2019-04-26T23:04:41.718Z,11.11
2019-04-26T23:07:13.657Z,11.17
2019-04-26T23:09:45.774Z,11.17
2019-04-26T23:12:28.889Z,11.28
2019-04-26T23:15:23.992Z,11.26
2019-04-26T23:18:08.355Z,11.26
2019-04-26T23:20:51.231Z,11.24
2019-04-26T23:23:23.656Z,11.23
2019-04-26T23:25:55.041Z,11.27
2019-04-26T23:28:27.749Z,11.26
2019-04-26T23:31:01.445Z,11.27
2019-04-26T23:33:33.824Z,11.34
2019-04-26T23:36:05.186Z,11.26
2019-04-26T23:38:37.635Z,11.23
2019-04-26T23:41:09.021Z,11.26
2019-04-26T23:43:40.347Z,11.44
2019-04-26T23:46:14.355Z,11.44
2019-04-26T23:48:48.560Z,11.33
2019-04-26T23:51:17.688Z,11.39
2019-04-26T23:53:50.484Z,11.55
2019-04-26T23:56:25.212Z,11.59
2019-04-26T23:58:54.903Z,11.63
